Time;durP1;ratioP1;P1;durP2;ratioP2;P2;SDS_P1;SDS_P2;PMS_P1;PMS_P2;Temp;Humidity;BMP_temperature;BMP_pressure;BME280_temperature;BME280_humidity;BME280_pressure;Samples;Min_cycle;Max_cycle;Signal;HPM_P1;HPM_P2
2022/08/31 00:05:04;;;;;;;0.82;0.60;;;22.90;59.80;;;;;;6216485;28;20022;-72
2022/08/31 00:08:05;;;;;;;0.50;0.40;;;22.90;59.80;;;;;;6215873;28;20014;-72
2022/08/31 00:11:08;;;;;;;0.50;0.40;;;22.90;59.80;;;;;;6215663;28;20370;-72
2022/08/31 00:14:09;;;;;;;1.23;0.43;;;22.90;59.80;;;;;;6216301;28;20105;-72
2022/08/31 00:17:10;;;;;;;0.60;0.57;;;22.90;59.80;;;;;;6217373;28;20769;-72
2022/08/31 00:20:12;;;;;;;0.52;0.38;;;22.90;59.80;;;;;;6216922;28;20036;-72
2022/08/31 00:23:16;;;;;;;1.10;0.40;;;22.90;59.90;;;;;;6222566;28;20033;-73
2022/08/31 00:26:17;;;;;;;0.80;0.63;;;22.90;59.80;;;;;;6215996;28;20034;-73
2022/08/31 00:29:17;;;;;;;0.50;0.50;;;22.90;59.90;;;;;;6213894;28;20041;-73
2022/08/31 00:32:18;;;;;;;0.52;0.50;;;22.90;59.80;;;;;;6215138;28;20053;-73
2022/08/31 00:35:19;;;;;;;0.50;0.38;;;22.90;59.80;;;;;;6215222;28;20018;-72
2022/08/31 00:38:19;;;;;;;0.50;0.50;;;22.90;59.80;;;;;;6216083;28;20026;-72
2022/08/31 00:41:23;;;;;;;0.40;0.40;;;22.90;59.90;;;;;;6216867;28;20025;-73
2022/08/31 00:44:24;;;;;;;0.40;0.30;;;22.90;59.90;;;;;;6216463;28;20033;-72
2022/08/31 00:47:25;;;;;;;0.52;0.45;;;22.90;59.80;;;;;;6216253;28;20045;-72
2022/08/31 00:50:26;;;;;;;0.30;0.30;;;22.90;59.80;;;;;;6214738;28;20065;-72
2022/08/31 00:53:27;;;;;;;0.57;0.50;;;22.90;59.80;;;;;;6222578;28;20041;-72
2022/08/31 00:56:30;;;;;;;0.55;0.55;;;22.90;59.90;;;;;;6216229;28;20392;-72
2022/08/31 00:59:31;;;;;;;0.55;0.50;;;22.90;59.80;;;;;;6216747;28;20078;-72
2022/08/31 01:02:32;;;;;;;0.32;0.30;;;22.90;59.80;;;;;;6216681;28;20026;-73
2022/08/31 01:05:33;;;;;;;0.60;0.40;;;22.90;59.80;;;;;;6215586;28;20499;-72
2022/08/31 01:08:34;;;;;;;0.65;0.50;;;22.90;59.90;;;;;;6214725;28;20444;-72
2022/08/31 01:11:37;;;;;;;0.50;0.50;;;22.90;59.90;;;;;;6216715;28;20022;-72
2022/08/31 01:14:38;;;;;;;0.50;0.30;;;22.90;59.90;;;;;;6215718;28;20022;-72
2022/08/31 01:17:40;;;;;;;0.68;0.43;;;22.90;59.80;;;;;;6213400;28;20079;-72
2022/08/31 01:20:57;;;;;;;1.50;0.50;;;22.90;59.80;;;;;;6214489;28;20453;-72
2022/08/31 01:24:01;;;;;;;1.35;0.70;;;22.90;59.90;;;;;;6214995;28;20686;-72
2022/08/31 01:27:03;;;;;;;0.68;0.50;;;22.90;59.80;;;;;;6220062;28;20084;-72
2022/08/31 01:30:09;;;;;;;0.63;0.40;;;22.90;59.80;;;;;;6213802;28;20038;-73
2022/08/31 01:33:11;;;;;;;0.50;0.50;;;22.90;59.80;;;;;;6214379;28;20030;-72
2022/08/31 01:36:14;;;;;;;1.23;0.50;;;22.90;59.80;;;;;;6213815;28;20021;-72
2022/08/31 01:39:14;;;;;;;0.88;0.50;;;22.90;59.90;;;;;;6214370;28;20030;-73
2022/08/31 01:42:18;;;;;;;0.47;0.45;;;22.90;59.90;;;;;;6213893;28;20129;-72
2022/08/31 01:45:19;;;;;;;0.30;0.30;;;22.90;59.90;;;;;;6213587;28;20042;-72
2022/08/31 01:48:21;;;;;;;0.30;0.30;;;22.90;59.90;;;;;;6214104;28;20026;-72
2022/08/31 01:51:22;;;;;;;0.95;0.50;;;22.90;59.90;;;;;;6219918;28;20022;-72
2022/08/31 01:54:23;;;;;;;0.40;0.30;;;22.90;59.90;;;;;;6213356;28;20090;-72
2022/08/31 01:57:24;;;;;;;0.30;0.30;;;22.90;59.90;;;;;;6213999;28;20018;-73
2022/08/31 02:00:27;;;;;;;0.80;0.40;;;22.90;59.90;;;;;;6214229;28;20167;-72
2022/08/31 02:03:28;;;;;;;0.47;0.40;;;22.90;59.90;;;;;;6214250;28;20034;-72
2022/08/31 02:06:29;;;;;;;0.57;0.57;;;22.90;59.90;;;;;;6213107;28;20037;-72
2022/08/31 02:09:29;;;;;;;0.57;0.40;;;22.90;59.90;;;;;;6213905;28;20106;-72
2022/08/31 02:12:30;;;;;;;0.50;0.50;;;22.90;59.90;;;;;;6213665;28;20037;-72
2022/08/31 02:15:31;;;;;;;0.50;0.43;;;22.90;59.90;;;;;;6213558;28;20022;-72
2022/08/31 02:18:34;;;;;;;0.50;0.40;;;22.90;59.90;;;;;;6220164;28;20137;-72
2022/08/31 02:21:35;;;;;;;0.20;0.20;;;22.90;59.90;;;;;;6225290;28;20073;-74
2022/08/31 02:24:36;;;;;;;0.45;0.35;;;22.90;59.90;;;;;;6224061;28;20518;-72
2022/08/31 02:27:37;;;;;;;0.50;0.40;;;22.90;59.90;;;;;;6217457;28;20034;-72
2022/08/31 02:30:40;;;;;;;0.40;0.30;;;22.90;59.90;;;;;;6217674;28;20066;-73
2022/08/31 02:33:41;;;;;;;0.60;0.55;;;22.90;59.90;;;;;;6217452;28;20326;-72
2022/08/31 02:36:44;;;;;;;0.47;0.40;;;22.90;59.90;;;;;;6217713;28;20418;-72
2022/08/31 02:39:44;;;;;;;0.38;0.38;;;22.90;59.90;;;;;;6216308;28;20033;-72
2022/08/31 02:42:45;;;;;;;1.02;0.50;;;22.90;59.90;;;;;;6216957;28;20050;-72
2022/08/31 02:45:46;;;;;;;0.50;0.50;;;22.90;59.90;;;;;;6216857;28;20280;-72
2022/08/31 02:48:46;;;;;;;0.50;0.45;;;22.90;59.90;;;;;;6217555;28;20078;-72
2022/08/31 02:51:47;;;;;;;0.50;0.50;;;22.90;59.90;;;;;;6217678;28;20363;-72
2022/08/31 02:54:47;;;;;;;0.47;0.40;;;22.90;59.90;;;;;;6217212;28;20032;-72
2022/08/31 02:57:49;;;;;;;0.45;0.40;;;22.90;59.90;;;;;;6217208;28;20033;-72
2022/08/31 03:00:50;;;;;;;0.43;0.40;;;22.90;59.90;;;;;;6217195;28;20018;-73
2022/08/31 03:03:51;;;;;;;0.40;0.40;;;22.90;59.90;;;;;;6216687;28;20128;-72
2022/08/31 03:06:52;;;;;;;0.90;0.50;;;22.90;60.00;;;;;;6216849;28;20038;-72
2022/08/31 03:09:53;;;;;;;0.22;0.20;;;22.90;59.90;;;;;;6218663;28;20029;-72
2022/08/31 03:12:53;;;;;;;0.80;0.40;;;22.90;59.90;;;;;;6217394;28;20061;-72
2022/08/31 03:15:54;;;;;;;0.40;0.40;;;22.90;59.90;;;;;;6216178;28;20053;-72
2022/08/31 03:18:55;;;;;;;0.40;0.40;;;22.90;59.90;;;;;;6217062;28;20241;-73
2022/08/31 03:21:55;;;;;;;0.70;0.55;;;22.90;59.90;;;;;;6216165;28;20079;-73
2022/08/31 03:24:56;;;;;;;0.60;0.50;;;22.90;59.90;;;;;;6215862;28;20030;-72
2022/08/31 03:27:57;;;;;;;0.80;0.60;;;22.90;59.90;;;;;;6215868;28;20567;-72
2022/08/31 03:30:58;;;;;;;0.40;0.40;;;22.90;59.90;;;;;;6214931;28;20090;-72
2022/08/31 03:33:58;;;;;;;0.30;0.30;;;22.90;59.90;;;;;;6216271;28;20441;-72
2022/08/31 03:36:59;;;;;;;0.30;0.30;;;22.90;60.00;;;;;;6216311;28;20044;-72
2022/08/31 03:40:00;;;;;;;0.65;0.52;;;22.90;60.00;;;;;;6222748;28;20030;-72
2022/08/31 03:43:00;;;;;;;0.45;0.35;;;22.90;59.90;;;;;;6221854;28;20066;-73
2022/08/31 03:46:03;;;;;;;0.35;0.35;;;22.90;60.80;;;;;;6215837;28;20306;-72
2022/08/31 03:49:06;;;;;;;0.30;0.30;;;22.90;59.90;;;;;;6216190;28;20036;-72
2022/08/31 03:52:07;;;;;;;0.52;0.40;;;22.90;60.00;;;;;;6221251;28;20117;-72
2022/08/31 03:55:09;;;;;;;1.55;0.30;;;22.90;59.90;;;;;;6215842;28;20022;-73
2022/08/31 03:58:10;;;;;;;0.40;0.40;;;22.90;60.00;;;;;;6215481;28;20033;-72
2022/08/31 04:01:12;;;;;;;0.35;0.35;;;22.90;59.90;;;;;;6216259;28;20034;-73
2022/08/31 04:04:14;;;;;;;0.55;0.40;;;22.90;59.90;;;;;;6214203;28;20026;-72
2022/08/31 04:07:14;;;;;;;0.47;0.40;;;22.90;60.00;;;;;;6215351;28;20018;-72
2022/08/31 04:10:15;;;;;;;0.50;0.30;;;22.90;60.00;;;;;;6215719;28;20037;-72
2022/08/31 04:13:16;;;;;;;0.82;0.50;;;22.90;60.00;;;;;;6210872;28;20041;-72
2022/08/31 04:16:20;;;;;;;0.30;0.30;;;22.90;59.90;;;;;;6215644;28;20053;-73
2022/08/31 04:19:23;;;;;;;0.30;0.30;;;22.90;60.00;;;;;;6215439;28;20108;-72
2022/08/31 04:22:24;;;;;;;0.77;0.50;;;22.90;60.00;;;;;;6215423;28;20053;-73
2022/08/31 04:25:25;;;;;;;0.50;0.50;;;22.90;60.00;;;;;;6221089;28;20030;-72
2022/08/31 04:28:25;;;;;;;0.40;0.40;;;22.90;60.00;;;;;;6215569;28;20060;-72
2022/08/31 04:31:26;;;;;;;0.60;0.30;;;22.90;60.00;;;;;;6215450;28;20060;-72
2022/08/31 04:34:27;;;;;;;1.02;0.30;;;22.90;59.90;;;;;;6215177;28;20036;-72
2022/08/31 04:37:29;;;;;;;0.65;0.50;;;22.90;60.00;;;;;;6221554;28;20030;-72
2022/08/31 04:40:29;;;;;;;0.75;0.50;;;22.90;59.90;;;;;;6214405;28;20048;-72
2022/08/31 04:43:31;;;;;;;0.63;0.40;;;22.90;60.00;;;;;;6220099;28;20053;-72
2022/08/31 04:46:34;;;;;;;0.40;0.38;;;22.90;60.00;;;;;;6215289;28;20510;-72
2022/08/31 04:49:34;;;;;;;0.57;0.40;;;22.80;59.90;;;;;;6214972;28;20041;-72
2022/08/31 04:52:35;;;;;;;0.30;0.30;;;22.90;60.00;;;;;;6215031;28;20166;-72
2022/08/31 04:55:40;;;;;;;2.55;1.00;;;22.90;60.00;;;;;;6214306;28;20018;-72
2022/08/31 04:58:42;;;;;;;0.40;0.40;;;22.90;60.00;;;;;;6220706;28;20065;-72
2022/08/31 05:01:44;;;;;;;0.47;0.47;;;22.90;60.00;;;;;;6206648;28;20037;-72
2022/08/31 05:04:45;;;;;;;0.63;0.50;;;22.90;60.00;;;;;;6208474;28;20022;-72
2022/08/31 05:07:46;;;;;;;0.35;0.35;;;22.90;60.00;;;;;;6214635;28;20388;-72
2022/08/31 05:10:47;;;;;;;0.47;0.38;;;22.90;59.90;;;;;;6214969;28;20065;-72
2022/08/31 05:13:48;;;;;;;0.38;0.35;;;22.90;59.90;;;;;;6214398;28;20117;-72
2022/08/31 05:16:50;;;;;;;0.50;0.40;;;22.90;59.90;;;;;;6214226;28;20026;-72
2022/08/31 05:19:51;;;;;;;0.63;0.40;;;22.90;59.90;;;;;;6214475;28;20417;-72
2022/08/31 05:22:52;;;;;;;0.60;0.40;;;22.90;59.90;;;;;;6213739;28;20030;-72
2022/08/31 05:25:52;;;;;;;0.40;0.28;;;22.90;59.90;;;;;;6214545;28;20036;-72
2022/08/31 05:28:54;;;;;;;0.50;0.30;;;22.90;59.90;;;;;;6214413;28;20105;-72
2022/08/31 05:31:55;;;;;;;0.40;0.40;;;22.90;59.90;;;;;;6214633;28;20024;-72
2022/08/31 05:34:56;;;;;;;0.60;0.50;;;22.90;60.80;;;;;;6214082;28;20366;-72
2022/08/31 05:37:56;;;;;;;0.80;0.50;;;22.90;59.90;;;;;;6214632;28;20037;-73
2022/08/31 05:40:57;;;;;;;0.43;0.32;;;22.90;59.90;;;;;;6214375;28;20544;-72
2022/08/31 05:43:58;;;;;;;0.47;0.40;;;22.90;59.90;;;;;;6213556;28;20053;-72
2022/08/31 05:46:58;;;;;;;0.40;0.40;;;22.90;59.90;;;;;;6214397;28;20041;-72
2022/08/31 05:49:59;;;;;;;0.55;0.40;;;22.90;59.90;;;;;;6213790;28;20496;-72
2022/08/31 05:52:59;;;;;;;0.57;0.40;;;22.90;59.80;;;;;;6214955;28;20106;-72
2022/08/31 05:56:08;;;;;;;0.55;0.35;;;22.90;59.90;;;;;;6218761;28;20413;-72
2022/08/31 05:59:10;;;;;;;1.75;0.30;;;22.80;59.80;;;;;;6215966;28;20018;-72
2022/08/31 06:02:10;;;;;;;0.30;0.30;;;22.90;59.90;;;;;;6208233;28;20030;-73
2022/08/31 06:05:11;;;;;;;0.80;0.50;;;22.90;59.90;;;;;;6213918;28;20584;-72
2022/08/31 06:08:12;;;;;;;0.70;0.38;;;22.90;59.90;;;;;;6221703;28;20022;-72
2022/08/31 06:11:16;;;;;;;0.68;0.50;;;22.90;59.90;;;;;;6221770;28;20105;-73
2022/08/31 06:14:17;;;;;;;0.60;0.50;;;22.90;59.90;;;;;;6221364;28;20495;-72
2022/08/31 06:17:18;;;;;;;0.98;0.57;;;22.90;59.90;;;;;;6221346;28;20057;-72
2022/08/31 06:20:19;;;;;;;0.57;0.45;;;22.90;60.00;;;;;;6221776;28;20037;-72
2022/08/31 06:23:19;;;;;;;0.70;0.60;;;22.90;59.90;;;;;;6221182;28;20149;-72
2022/08/31 06:26:22;;;;;;;0.98;0.60;;;22.90;59.90;;;;;;6220742;28;20038;-72
2022/08/31 06:29:22;;;;;;;1.83;0.77;;;22.80;59.90;;;;;;6221320;28;20050;-72
2022/08/31 06:32:25;;;;;;;0.63;0.50;;;22.80;59.90;;;;;;6221541;28;20472;-72
2022/08/31 06:35:25;;;;;;;0.68;0.43;;;22.80;59.80;;;;;;6220799;28;20153;-72
2022/08/31 06:38:26;;;;;;;1.23;0.60;;;22.80;59.90;;;;;;6220246;28;20376;-73
2022/08/31 06:41:38;;;;;;;0.73;0.45;;;22.80;59.90;;;;;;6221361;28;20045;-72
2022/08/31 06:44:39;;;;;;;0.60;0.50;;;22.80;59.90;;;;;;6221028;28;20018;-73
2022/08/31 06:47:40;;;;;;;0.55;0.45;;;22.80;59.90;;;;;;6296510;28;20052;-72
2022/08/31 06:50:40;;;;;;;1.08;0.52;;;22.80;59.90;;;;;;6295981;28;20123;-73
2022/08/31 06:53:41;;;;;;;1.15;0.60;;;22.80;59.90;;;;;;6296484;28;20029;-72
2022/08/31 06:56:42;;;;;;;1.10;0.60;;;22.80;59.80;;;;;;6290565;28;20028;-73
2022/08/31 06:59:43;;;;;;;0.40;0.40;;;22.80;59.80;;;;;;6296271;28;20025;-73
2022/08/31 07:02:44;;;;;;;1.20;0.60;;;22.80;59.90;;;;;;6291042;28;20037;-72
2022/08/31 07:05:45;;;;;;;0.80;0.70;;;22.80;59.90;;;;;;6295442;28;20482;-72
2022/08/31 07:08:50;;;;;;;0.77;0.52;;;22.80;59.90;;;;;;6295251;28;20056;-73
2022/08/31 07:11:52;;;;;;;0.75;0.60;;;22.80;59.90;;;;;;6295612;28;20040;-72
2022/08/31 07:14:52;;;;;;;0.88;0.50;;;22.80;59.90;;;;;;6292099;28;20029;-72
2022/08/31 07:17:53;;;;;;;0.60;0.50;;;22.80;60.60;;;;;;6268571;28;20506;-72
2022/08/31 07:20:54;;;;;;;0.47;0.47;;;22.80;59.80;;;;;;6218817;28;20039;-72
2022/08/31 07:23:57;;;;;;;0.43;0.30;;;22.80;59.80;;;;;;6220616;28;20052;-72
2022/08/31 07:27:03;;;;;;;0.75;0.60;;;22.80;59.80;;;;;;6220050;28;20030;-72
2022/08/31 07:30:04;;;;;;;0.60;0.50;;;22.80;59.80;;;;;;6220454;28;20034;-72
2022/08/31 07:33:05;;;;;;;0.60;0.50;;;22.80;59.80;;;;;;6220580;28;20423;-72
2022/08/31 07:36:08;;;;;;;0.68;0.57;;;22.80;59.80;;;;;;6219942;28;20472;-72
2022/08/31 07:42:34;;;;;;;0.65;0.40;;;22.80;59.80;;;;;;6219775;28;20045;-72
2022/08/31 07:45:35;;;;;;;0.60;0.50;;;22.80;59.80;;;;;;6218355;28;20162;-72
2022/08/31 07:48:36;;;;;;;1.17;0.65;;;22.80;60.60;;;;;;6224706;28;20037;-73
2022/08/31 07:51:37;;;;;;;0.60;0.40;;;22.80;59.80;;;;;;6219242;28;20541;-73
2022/08/31 07:54:38;;;;;;;0.45;0.45;;;22.80;59.80;;;;;;6219745;28;20022;-72
2022/08/31 07:57:42;;;;;;;0.60;0.40;;;22.80;59.80;;;;;;6220149;28;20022;-72
2022/08/31 08:00:47;;;;;;;0.50;0.40;;;22.80;59.90;;;;;;6220001;28;20358;-73
2022/08/31 08:03:51;;;;;;;1.33;0.40;;;22.80;59.80;;;;;;6219996;28;20022;-72
2022/08/31 08:06:55;;;;;;;0.57;0.40;;;22.80;59.80;;;;;;6219615;28;20046;-72
2022/08/31 08:09:55;;;;;;;0.50;0.45;;;22.80;59.80;;;;;;6219733;28;20050;-72
2022/08/31 08:13:01;;;;;;;0.75;0.40;;;22.80;59.80;;;;;;6219761;28;20018;-73
2022/08/31 08:16:02;;;;;;;0.35;0.35;;;22.80;59.80;;;;;;6217996;28;20052;-72
2022/08/31 08:19:04;;;;;;;0.30;0.30;;;22.80;59.80;;;;;;6218130;28;20026;-72
2022/08/31 08:22:04;;;;;;;0.50;0.50;;;22.80;59.80;;;;;;6223991;28;20159;-72
2022/08/31 08:25:06;;;;;;;0.50;0.45;;;22.80;59.90;;;;;;6294264;28;20044;-72
2022/08/31 08:28:06;;;;;;;0.77;0.52;;;22.80;59.80;;;;;;6293728;28;20066;-72
2022/08/31 08:31:13;;;;;;;0.45;0.40;;;22.80;59.80;;;;;;6289619;28;20414;-73
2022/08/31 08:34:13;;;;;;;0.60;0.47;;;22.80;59.80;;;;;;6276728;28;20051;-73
2022/08/31 08:37:14;;;;;;;0.45;0.45;;;22.80;59.80;;;;;;6292329;28;20024;-73
2022/08/31 08:40:40;;;;;;;0.90;0.60;;;22.80;59.80;;;;;;6293581;28;20033;-72
2022/08/31 08:43:47;;;;;;;0.90;0.50;;;22.80;59.80;;;;;;6293345;28;20102;-72
2022/08/31 08:46:53;;;;;;;0.30;0.30;;;22.80;59.80;;;;;;6291414;28;20028;-73
2022/08/31 08:49:55;;;;;;;0.60;0.40;;;22.80;59.80;;;;;;6289746;28;20082;-73
2022/08/31 08:53:02;;;;;;;0.50;0.50;;;22.80;59.80;;;;;;6292839;28;20205;-72
2022/08/31 08:56:02;;;;;;;1.10;0.57;;;22.80;59.80;;;;;;6249050;28;20069;-73
2022/08/31 08:59:03;;;;;;;0.80;0.40;;;22.80;59.80;;;;;;6218880;28;20022;-72
2022/08/31 09:02:07;;;;;;;0.40;0.40;;;22.80;59.80;;;;;;6218744;28;20018;-74
2022/08/31 09:05:17;;;;;;;0.47;0.47;;;22.80;59.80;;;;;;6218563;28;20056;-72
2022/08/31 09:08:32;;;;;;;0.40;0.38;;;22.80;59.80;;;;;;6218873;28;20061;-72
2022/08/31 09:12:17;;;;;;;0.85;0.30;;;22.80;59.80;;;;;;6218608;28;20030;-73
2022/08/31 09:15:36;;;;;;;0.63;0.40;;;22.80;59.80;;;;;;6240776;28;20060;-73
2022/08/31 09:18:57;;;;;;;0.52;0.40;;;22.80;59.80;;;;;;6210048;28;20022;-73
2022/08/31 09:22:00;;;;;;;0.63;0.45;;;22.80;59.80;;;;;;6218215;28;20105;-73
2022/08/31 09:25:02;;;;;;;0.60;0.50;;;22.80;59.80;;;;;;6218354;28;20122;-72
2022/08/31 09:28:06;;;;;;;0.93;0.47;;;22.80;59.90;;;;;;6217656;28;20033;-72
2022/08/31 09:31:07;;;;;;;0.55;0.45;;;22.80;59.90;;;;;;6218450;28;20401;-72
2022/08/31 09:34:30;;;;;;;0.60;0.55;;;22.80;59.90;;;;;;6218242;28;20030;-72
2022/08/31 09:37:44;;;;;;;0.85;0.47;;;22.80;59.90;;;;;;6217838;28;20028;-72
2022/08/31 09:40:48;;;;;;;0.90;0.40;;;22.80;59.90;;;;;;6218301;28;20461;-73
2022/08/31 09:43:49;;;;;;;0.32;0.30;;;22.80;59.90;;;;;;6217718;28;20135;-72
2022/08/31 09:46:52;;;;;;;0.47;0.40;;;22.80;59.90;;;;;;6217944;28;20036;-72
2022/08/31 09:49:55;;;;;;;0.30;0.30;;;22.80;59.90;;;;;;6218200;28;20025;-72
2022/08/31 09:57:01;;;;;;;0.35;0.35;;;22.80;59.90;;;;;;6218075;28;20034;-72
2022/08/31 10:00:02;;;;;;;0.57;0.40;;;22.80;60.00;;;;;;6217648;28;20026;-73
2022/08/31 10:03:19;;;;;;;0.30;0.30;;;22.80;60.00;;;;;;6217785;28;20014;-72
2022/08/31 10:06:45;;;;;;;0.47;0.47;;;22.80;59.90;;;;;;6217465;28;20034;-72
2022/08/31 10:09:50;;;;;;;0.20;0.20;;;22.80;59.90;;;;;;6217640;28;20053;-72
2022/08/31 10:13:02;;;;;;;0.40;0.38;;;22.80;59.90;;;;;;6217377;28;20022;-73
2022/08/31 10:16:38;;;;;;;0.50;0.40;;;22.80;60.00;;;;;;6217329;28;20396;-72
2022/08/31 10:20:00;;;;;;;0.63;0.40;;;22.80;60.00;;;;;;6250361;28;20045;-73
2022/08/31 10:23:32;;;;;;;0.35;0.32;;;22.80;59.90;;;;;;6222467;28;20050;-72
2022/08/31 10:26:39;;;;;;;0.32;0.32;;;22.80;59.90;;;;;;6237925;28;20050;-72
2022/08/31 10:29:58;;;;;;;0.63;0.50;;;22.80;59.90;;;;;;6217519;28;20022;-72
2022/08/31 10:33:17;;;;;;;0.38;0.38;;;22.80;59.90;;;;;;6216995;28;20033;-72
2022/08/31 10:36:18;;;;;;;0.55;0.40;;;22.80;59.90;;;;;;6217332;28;20026;-73
2022/08/31 10:39:35;;;;;;;0.63;0.40;;;22.80;59.90;;;;;;6223997;28;20026;-72
2022/08/31 10:42:43;;;;;;;0.63;0.40;;;22.80;59.90;;;;;;6221477;28;20091;-72
2022/08/31 10:45:52;;;;;;;0.38;0.38;;;22.80;59.90;;;;;;6220480;28;20038;-72
2022/08/31 10:48:55;;;;;;;0.45;0.32;;;22.80;59.90;;;;;;6221413;28;20046;-73
2022/08/31 10:52:17;;;;;;;0.57;0.43;;;22.80;59.90;;;;;;6220645;28;20033;-72
2022/08/31 10:55:31;;;;;;;0.55;0.38;;;22.80;59.90;;;;;;6226070;28;20095;-73
2022/08/31 10:58:37;;;;;;;0.20;0.20;;;22.80;59.90;;;;;;6221707;28;20536;-72
2022/08/31 11:01:58;;;;;;;0.70;0.40;;;22.80;59.90;;;;;;6226932;28;20061;-73
2022/08/31 11:05:32;;;;;;;0.55;0.40;;;22.80;59.90;;;;;;6220890;28;20025;-72
2022/08/31 11:09:03;;;;;;;0.40;0.32;;;22.80;59.90;;;;;;6220799;28;20117;-73
2022/08/31 11:12:30;;;;;;;0.43;0.30;;;22.80;59.90;;;;;;6228780;28;20463;-72
2022/08/31 11:15:48;;;;;;;0.32;0.32;;;22.80;59.90;;;;;;6220927;28;20030;-72
2022/08/31 11:19:06;;;;;;;0.50;0.40;;;22.80;59.90;;;;;;6220287;28;20097;-72
2022/08/31 11:22:30;;;;;;;0.50;0.50;;;22.80;59.90;;;;;;6220180;28;20053;-72
2022/08/31 11:26:12;;;;;;;0.50;0.45;;;22.80;59.90;;;;;;6219893;28;20734;-72
2022/08/31 11:29:12;;;;;;;0.68;0.50;;;22.80;59.90;;;;;;6293593;28;20039;-73
2022/08/31 11:32:33;;;;;;;0.98;0.50;;;22.80;60.00;;;;;;6220417;28;20018;-72
2022/08/31 11:35:59;;;;;;;0.40;0.40;;;22.80;59.90;;;;;;6219754;28;20032;-72
2022/08/31 11:39:00;;;;;;;0.88;0.50;;;22.80;59.90;;;;;;6219891;28;20033;-73
2022/08/31 11:42:09;;;;;;;0.40;0.40;;;22.80;59.90;;;;;;6219909;28;20074;-72
2022/08/31 11:45:31;;;;;;;0.57;0.47;;;22.80;60.00;;;;;;6219982;28;20025;-73
2022/08/31 11:48:50;;;;;;;0.60;0.35;;;22.80;60.00;;;;;;6220158;28;20030;-72
2022/08/31 11:51:54;;;;;;;0.60;0.55;;;22.80;59.90;;;;;;6219596;28;20082;-73
2022/08/31 11:55:00;;;;;;;1.55;0.57;;;22.80;60.00;;;;;;6225213;28;20053;-72
2022/08/31 11:58:08;;;;;;;0.63;0.45;;;22.80;59.90;;;;;;6220011;28;20022;-72
2022/08/31 12:01:09;;;;;;;0.35;0.32;;;22.80;60.00;;;;;;6219890;28;20110;-72
2022/08/31 12:04:28;;;;;;;0.32;0.30;;;22.80;59.90;;;;;;6219409;28;20555;-72
2022/08/31 12:07:44;;;;;;;0.47;0.40;;;22.80;59.90;;;;;;6195151;28;20087;-72
2022/08/31 12:10:51;;;;;;;0.45;0.40;;;22.80;60.00;;;;;;6205255;28;20053;-73
2022/08/31 12:14:17;;;;;;;0.40;0.40;;;22.80;59.90;;;;;;6219604;28;20026;-72
2022/08/31 12:17:47;;;;;;;0.60;0.30;;;22.80;60.00;;;;;;6218933;28;20026;-72
2022/08/31 12:24:20;;;;;;;0.60;0.45;;;22.80;60.00;;;;;;6218873;28;20131;-72
2022/08/31 12:27:38;;;;;;;0.63;0.50;;;22.80;60.00;;;;;;6219295;28;20453;-72
2022/08/31 12:30:49;;;;;;;0.43;0.38;;;22.80;60.00;;;;;;6218005;28;20430;-72
2022/08/31 12:34:03;;;;;;;0.50;0.30;;;22.80;60.00;;;;;;6225208;28;20551;-73
2022/08/31 12:37:26;;;;;;;0.52;0.38;;;22.80;60.00;;;;;;6217998;28;20028;-73
2022/08/31 12:40:42;;;;;;;0.20;0.20;;;22.80;60.00;;;;;;6223870;28;20030;-72
2022/08/31 12:43:47;;;;;;;0.57;0.50;;;22.80;60.00;;;;;;6218792;28;20058;-73
2022/08/31 12:47:04;;;;;;;0.52;0.50;;;22.80;60.00;;;;;;6218807;28;20026;-72
2022/08/31 12:50:20;;;;;;;0.50;0.50;;;22.80;60.00;;;;;;6218920;28;20383;-72
2022/08/31 12:53:25;;;;;;;0.50;0.40;;;22.80;60.00;;;;;;6205550;28;20726;-72
2022/08/31 12:57:07;;;;;;;0.50;0.50;;;22.80;60.00;;;;;;6218735;28;20022;-72
2022/08/31 13:00:28;;;;;;;0.50;0.35;;;22.80;60.00;;;;;;6218936;28;20025;-73
2022/08/31 13:03:30;;;;;;;0.35;0.30;;;22.80;60.00;;;;;;6193733;28;20022;-72
2022/08/31 13:06:34;;;;;;;0.75;0.60;;;22.80;60.00;;;;;;6202698;28;20037;-72
2022/08/31 13:09:35;;;;;;;0.50;0.40;;;22.80;60.00;;;;;;6218879;28;20480;-72
2022/08/31 13:12:37;;;;;;;0.73;0.45;;;22.80;60.00;;;;;;6218056;28;20454;-72
2022/08/31 13:15:42;;;;;;;0.40;0.40;;;22.80;60.00;;;;;;6218674;28;20029;-72
2022/08/31 13:18:45;;;;;;;0.40;0.40;;;22.80;60.00;;;;;;6194292;28;20023;-72
2022/08/31 13:21:52;;;;;;;0.40;0.40;;;22.80;60.00;;;;;;6202234;28;20037;-72
2022/08/31 13:24:52;;;;;;;0.60;0.45;;;22.80;60.00;;;;;;6218408;28;20025;-72
2022/08/31 13:27:53;;;;;;;0.45;0.40;;;22.80;60.00;;;;;;6217966;28;20057;-72
2022/08/31 13:30:59;;;;;;;0.30;0.30;;;22.80;60.00;;;;;;6217405;28;20496;-72
2022/08/31 13:34:02;;;;;;;0.40;0.40;;;22.80;60.00;;;;;;6192657;28;20030;-73
2022/08/31 13:37:04;;;;;;;0.25;0.25;;;22.80;59.90;;;;;;6206772;28;20149;-73
2022/08/31 13:40:09;;;;;;;0.35;0.35;;;22.80;59.90;;;;;;6217978;28;20105;-72
2022/08/31 13:43:18;;;;;;;0.40;0.40;;;22.80;59.90;;;;;;6217777;28;20462;-72
2022/08/31 13:46:23;;;;;;;0.40;0.40;;;22.80;59.90;;;;;;6194679;28;20121;-72
2022/08/31 13:49:34;;;;;;;0.33;0.33;;;22.80;59.90;;;;;;6216481;28;20117;-72
2022/08/31 13:52:36;;;;;;;0.90;0.40;;;22.80;59.90;;;;;;6218059;28;20384;-73
2022/08/31 13:55:41;;;;;;;0.55;0.47;;;22.80;60.00;;;;;;6223654;28;20480;-72
2022/08/31 13:58:41;;;;;;;0.50;0.40;;;22.80;60.00;;;;;;6217624;28;20484;-72
2022/08/31 14:01:53;;;;;;;0.47;0.38;;;22.80;59.90;;;;;;6221300;28;20033;-72
2022/08/31 14:05:06;;;;;;;0.70;0.50;;;22.80;59.90;;;;;;6217436;28;20064;-72
2022/08/31 14:08:08;;;;;;;0.73;0.50;;;22.80;59.90;;;;;;6222692;28;20050;-72
2022/08/31 14:11:12;;;;;;;0.40;0.40;;;22.80;59.90;;;;;;6217422;28;20468;-72
2022/08/31 14:14:13;;;;;;;0.70;0.50;;;22.80;59.90;;;;;;6224270;28;20091;-73
2022/08/31 14:17:15;;;;;;;0.47;0.47;;;22.80;59.90;;;;;;6221641;28;20030;-73
2022/08/31 14:20:37;;;;;;;0.40;0.40;;;22.80;59.90;;;;;;6221888;28;20426;-73
2022/08/31 14:23:42;;;;;;;0.50;0.40;;;22.80;59.90;;;;;;6221309;28;20018;-72
2022/08/31 14:26:43;;;;;;;0.75;0.40;;;22.80;59.90;;;;;;6225480;28;20083;-72
2022/08/31 14:29:44;;;;;;;0.57;0.50;;;22.80;60.00;;;;;;6221896;28;20481;-73
2022/08/31 14:32:44;;;;;;;0.40;0.40;;;22.80;59.90;;;;;;6221498;28;20034;-72
2022/08/31 14:35:45;;;;;;;0.50;0.50;;;22.80;59.90;;;;;;6221514;28;20101;-72
2022/08/31 14:38:47;;;;;;;0.40;0.40;;;22.80;59.90;;;;;;6220997;28;20056;-72
2022/08/31 14:41:48;;;;;;;0.40;0.30;;;22.80;59.90;;;;;;6221649;28;20050;-72
2022/08/31 14:45:17;;;;;;;0.43;0.43;;;22.80;59.90;;;;;;6220688;28;20065;-73
2022/08/31 14:48:18;;;;;;;0.63;0.43;;;22.80;60.00;;;;;;6221238;28;20038;-72
2022/08/31 14:51:18;;;;;;;1.27;0.60;;;22.80;60.00;;;;;;6227409;28;20026;-73
2022/08/31 14:54:19;;;;;;;0.40;0.32;;;22.80;59.90;;;;;;6221107;28;20022;-72
2022/08/31 14:57:27;;;;;;;0.40;0.40;;;22.80;59.90;;;;;;6221134;28;20026;-72
2022/08/31 15:00:30;;;;;;;0.95;0.50;;;22.80;59.90;;;;;;6196438;28;20030;-72
2022/08/31 15:03:33;;;;;;;0.60;0.60;;;22.80;59.90;;;;;;6212294;28;20380;-72
2022/08/31 15:06:34;;;;;;;0.50;0.50;;;22.80;59.90;;;;;;6220861;28;20048;-72
2022/08/31 15:09:35;;;;;;;0.52;0.50;;;22.80;59.90;;;;;;6223399;28;20380;-72
2022/08/31 15:12:35;;;;;;;0.60;0.55;;;22.80;59.90;;;;;;6220813;28;20022;-73
2022/08/31 15:15:36;;;;;;;0.65;0.60;;;22.80;59.90;;;;;;6297510;28;20414;-73
2022/08/31 15:18:41;;;;;;;0.40;0.32;;;22.80;59.90;;;;;;6203899;28;20023;-72
2022/08/31 15:21:49;;;;;;;0.63;0.60;;;22.80;59.90;;;;;;6220645;28;20715;-72
2022/08/31 15:24:51;;;;;;;0.40;0.40;;;22.80;59.90;;;;;;6219734;28;20032;-72
2022/08/31 15:27:51;;;;;;;0.50;0.40;;;22.80;60.80;;;;;;6220529;28;20181;-72
2022/08/31 15:30:53;;;;;;;0.40;0.40;;;22.80;59.90;;;;;;6220474;28;20026;-72
2022/08/31 15:33:54;;;;;;;0.55;0.45;;;22.80;59.90;;;;;;6219897;28;20037;-72
2022/08/31 15:36:58;;;;;;;0.55;0.50;;;22.80;59.90;;;;;;6220331;28;20071;-72
2022/08/31 15:40:03;;;;;;;0.60;0.52;;;22.80;59.90;;;;;;6219912;28;20105;-72
2022/08/31 15:43:08;;;;;;;0.93;0.50;;;22.80;60.00;;;;;;6220338;28;20053;-72
2022/08/31 15:46:10;;;;;;;0.50;0.40;;;22.80;59.90;;;;;;6218841;28;20025;-72
2022/08/31 15:49:10;;;;;;;0.55;0.55;;;22.80;59.90;;;;;;6220349;28;20022;-73
2022/08/31 15:52:11;;;;;;;0.50;0.47;;;22.80;59.90;;;;;;6220294;28;20052;-72
2022/08/31 15:55:20;;;;;;;0.60;0.40;;;22.80;59.90;;;;;;6219931;28;20060;-72
2022/08/31 15:58:20;;;;;;;1.00;0.55;;;22.80;59.90;;;;;;6219968;28;20114;-72
2022/08/31 16:01:22;;;;;;;0.60;0.60;;;22.80;59.90;;;;;;6195366;28;20019;-72
2022/08/31 16:04:23;;;;;;;0.50;0.43;;;22.80;60.00;;;;;;6202092;28;20218;-72
2022/08/31 16:07:25;;;;;;;0.40;0.40;;;22.80;60.10;;;;;;6219125;28;20036;-71
2022/08/31 16:10:27;;;;;;;0.40;0.40;;;22.70;60.00;;;;;;6219186;28;20525;-73
2022/08/31 16:13:27;;;;;;;0.73;0.50;;;22.70;60.00;;;;;;6220326;28;20030;-73
2022/08/31 16:16:33;;;;;;;0.70;0.50;;;22.80;60.10;;;;;;6218146;28;20357;-72
2022/08/31 16:19:34;;;;;;;0.95;0.60;;;22.80;60.10;;;;;;6216420;28;20109;-72